sensor_id;sensor_type;location;lat;lon;timestamp;temperature;humidity
6293;DHT22;3179;54.350;10.102;2024-03-25T00:00:23;8.70;99.90
6293;DHT22;3179;54.350;10.102;2024-03-25T00:02:51;8.70;99.90
6293;DHT22;3179;54.350;10.102;2024-03-25T00:05:17;8.70;99.90
6293;DHT22;3179;54.350;10.102;2024-03-25T00:07:48;8.70;99.90
6293;DHT22;3179;54.350;10.102;2024-03-25T00:10:15;8.70;99.90
6293;DHT22;3179;54.350;10.102;2024-03-25T00:12:42;8.70;99.90
6293;DHT22;3179;54.350;10.102;2024-03-25T00:15:09;8.60;99.90
6293;DHT22;3179;54.350;10.102;2024-03-25T00:17:36;8.70;99.90
6293;DHT22;3179;54.350;10.102;2024-03-25T00:20:02;8.60;99.90
6293;DHT22;3179;54.350;10.102;2024-03-25T00:22:31;8.70;99.90
6293;DHT22;3179;54.350;10.102;2024-03-25T00:24:57;8.70;99.90
6293;DHT22;3179;54.350;10.102;2024-03-25T00:27:25;8.70;99.90
6293;DHT22;3179;54.350;10.102;2024-03-25T00:29:51;8.70;99.90
6293;DHT22;3179;54.350;10.102;2024-03-25T00:32:18;8.70;99.90
6293;DHT22;3179;54.350;10.102;2024-03-25T00:34:44;8.60;99.90
6293;DHT22;3179;54.350;10.102;2024-03-25T00:37:11;8.60;99.90
6293;DHT22;3179;54.350;10.102;2024-03-25T00:39:37;8.60;99.90
6293;DHT22;3179;54.350;10.102;2024-03-25T00:42:04;8.60;99.90
6293;DHT22;3179;54.350;10.102;2024-03-25T00:44:31;8.60;99.90
6293;DHT22;3179;54.350;10.102;2024-03-25T00:46:58;8.60;99.90
6293;DHT22;3179;54.350;10.102;2024-03-25T00:49:24;8.60;99.90
6293;DHT22;3179;54.350;10.102;2024-03-25T00:51:51;8.60;99.90
6293;DHT22;3179;54.350;10.102;2024-03-25T00:54:17;8.60;99.90
6293;DHT22;3179;54.350;10.102;2024-03-25T00:56:44;8.60;99.90
6293;DHT22;3179;54.350;10.102;2024-03-25T00:59:12;8.60;99.90
6293;DHT22;3179;54.350;10.102;2024-03-25T01:01:40;8.60;99.90
6293;DHT22;3179;54.350;10.102;2024-03-25T01:04:06;8.60;99.90
6293;DHT22;3179;54.350;10.102;2024-03-25T01:06:33;8.50;99.90
6293;DHT22;3179;54.350;10.102;2024-03-25T01:08:59;8.50;99.90
6293;DHT22;3179;54.350;10.102;2024-03-25T01:11:26;8.50;99.90
6293;DHT22;3179;54.350;10.102;2024-03-25T01:13:52;8.50;99.90
6293;DHT22;3179;54.350;10.102;2024-03-25T01:16:18;8.40;99.90
6293;DHT22;3179;54.350;10.102;2024-03-25T01:18:46;8.40;99.90
6293;DHT22;3179;54.350;10.102;2024-03-25T01:21:13;8.40;99.90
6293;DHT22;3179;54.350;10.102;2024-03-25T01:23:38;8.40;99.90
6293;DHT22;3179;54.350;10.102;2024-03-25T01:26:06;8.40;99.90
6293;DHT22;3179;54.350;10.102;2024-03-25T01:28:32;8.40;99.90
6293;DHT22;3179;54.350;10.102;2024-03-25T01:30:58;8.40;99.90
6293;DHT22;3179;54.350;10.102;2024-03-25T01:33:25;8.40;99.90
6293;DHT22;3179;54.350;10.102;2024-03-25T01:35:53;8.40;99.90
6293;DHT22;3179;54.350;10.102;2024-03-25T01:38:21;8.40;99.90
6293;DHT22;3179;54.350;10.102;2024-03-25T01:40:48;8.40;99.90
6293;DHT22;3179;54.350;10.102;2024-03-25T01:43:13;8.30;99.90
6293;DHT22;3179;54.350;10.102;2024-03-25T01:45:42;8.30;99.90
6293;DHT22;3179;54.350;10.102;2024-03-25T01:48:08;8.30;99.90
6293;DHT22;3179;54.350;10.102;2024-03-25T01:50:38;8.30;99.90
6293;DHT22;3179;54.350;10.102;2024-03-25T01:53:07;8.30;99.90
6293;DHT22;3179;54.350;10.102;2024-03-25T01:55:35;8.30;99.90
6293;DHT22;3179;54.350;10.102;2024-03-25T01:58:05;8.30;99.90
6293;DHT22;3179;54.350;10.102;2024-03-25T02:00:32;8.30;99.90
6293;DHT22;3179;54.350;10.102;2024-03-25T02:02:58;8.40;99.90
6293;DHT22;3179;54.350;10.102;2024-03-25T02:05:25;8.40;99.90
6293;DHT22;3179;54.350;10.102;2024-03-25T02:07:51;8.40;99.90
6293;DHT22;3179;54.350;10.102;2024-03-25T02:10:20;8.50;99.90
6293;DHT22;3179;54.350;10.102;2024-03-25T02:12:47;8.50;99.90
6293;DHT22;3179;54.350;10.102;2024-03-25T02:15:14;8.50;99.90
6293;DHT22;3179;54.350;10.102;2024-03-25T02:17:40;8.40;99.90
6293;DHT22;3179;54.350;10.102;2024-03-25T02:20:08;8.40;99.90
6293;DHT22;3179;54.350;10.102;2024-03-25T02:22:35;8.40;99.90
6293;DHT22;3179;54.350;10.102;2024-03-25T02:25:06;8.30;99.90
6293;DHT22;3179;54.350;10.102;2024-03-25T02:27:34;8.30;99.90
6293;DHT22;3179;54.350;10.102;2024-03-25T02:30:05;8.30;99.90
6293;DHT22;3179;54.350;10.102;2024-03-25T02:32:31;8.40;99.90
6293;DHT22;3179;54.350;10.102;2024-03-25T02:34:58;8.40;99.90
6293;DHT22;3179;54.350;10.102;2024-03-25T02:37:24;8.30;99.90
6293;DHT22;3179;54.350;10.102;2024-03-25T02:39:53;8.40;99.90
6293;DHT22;3179;54.350;10.102;2024-03-25T02:42:21;8.40;99.90
6293;DHT22;3179;54.350;10.102;2024-03-25T02:44:49;8.50;99.90
6293;DHT22;3179;54.350;10.102;2024-03-25T02:47:15;8.40;99.90
6293;DHT22;3179;54.350;10.102;2024-03-25T02:49:43;8.40;99.90
6293;DHT22;3179;54.350;10.102;2024-03-25T02:52:09;8.50;99.90
6293;DHT22;3179;54.350;10.102;2024-03-25T02:54:36;8.40;99.90
6293;DHT22;3179;54.350;10.102;2024-03-25T02:57:01;8.40;99.90
6293;DHT22;3179;54.350;10.102;2024-03-25T02:59:28;8.40;99.90
6293;DHT22;3179;54.350;10.102;2024-03-25T03:01:55;8.50;99.90
6293;DHT22;3179;54.350;10.102;2024-03-25T03:04:22;8.50;99.90
6293;DHT22;3179;54.350;10.102;2024-03-25T03:06:48;8.50;99.90
6293;DHT22;3179;54.350;10.102;2024-03-25T03:09:15;8.40;99.90
6293;DHT22;3179;54.350;10.102;2024-03-25T03:11:41;8.40;99.90
6293;DHT22;3179;54.350;10.102;2024-03-25T03:14:08;8.30;99.90
6293;DHT22;3179;54.350;10.102;2024-03-25T03:16:34;8.20;99.90
6293;DHT22;3179;54.350;10.102;2024-03-25T03:19:02;8.20;99.90
6293;DHT22;3179;54.350;10.102;2024-03-25T03:21:28;8.20;99.90
6293;DHT22;3179;54.350;10.102;2024-03-25T03:23:56;8.20;99.90
6293;DHT22;3179;54.350;10.102;2024-03-25T03:26:22;8.20;99.90
6293;DHT22;3179;54.350;10.102;2024-03-25T03:28:52;8.20;99.90
6293;DHT22;3179;54.350;10.102;2024-03-25T03:31:18;8.20;99.90
6293;DHT22;3179;54.350;10.102;2024-03-25T03:33:47;8.20;99.90
6293;DHT22;3179;54.350;10.102;2024-03-25T03:36:15;8.20;99.90
6293;DHT22;3179;54.350;10.102;2024-03-25T03:38:42;8.10;99.90
6293;DHT22;3179;54.350;10.102;2024-03-25T03:41:08;8.10;99.90
6293;DHT22;3179;54.350;10.102;2024-03-25T03:43:35;8.10;99.90
6293;DHT22;3179;54.350;10.102;2024-03-25T03:46:01;8.10;99.90
6293;DHT22;3179;54.350;10.102;2024-03-25T03:48:28;8.10;99.90
6293;DHT22;3179;54.350;10.102;2024-03-25T03:50:55;8.00;99.90
6293;DHT22;3179;54.350;10.102;2024-03-25T03:53:23;8.00;99.90
6293;DHT22;3179;54.350;10.102;2024-03-25T03:55:55;8.00;99.90
6293;DHT22;3179;54.350;10.102;2024-03-25T03:58:23;7.90;99.90
6293;DHT22;3179;54.350;10.102;2024-03-25T04:00:49;7.90;99.90
6293;DHT22;3179;54.350;10.102;2024-03-25T04:03:16;7.90;99.90
6293;DHT22;3179;54.350;10.102;2024-03-25T04:05:41;7.90;99.90
6293;DHT22;3179;54.350;10.102;2024-03-25T04:08:08;7.90;99.90
6293;DHT22;3179;54.350;10.102;2024-03-25T04:10:36;7.90;99.90
6293;DHT22;3179;54.350;10.102;2024-03-25T04:13:03;7.90;99.90
6293;DHT22;3179;54.350;10.102;2024-03-25T04:15:32;7.90;99.90
6293;DHT22;3179;54.350;10.102;2024-03-25T04:17:59;7.90;99.90
6293;DHT22;3179;54.350;10.102;2024-03-25T04:20:26;7.90;99.90
6293;DHT22;3179;54.350;10.102;2024-03-25T04:22:53;7.90;99.90
6293;DHT22;3179;54.350;10.102;2024-03-25T04:25:19;7.80;99.90
6293;DHT22;3179;54.350;10.102;2024-03-25T04:27:47;7.80;99.90
6293;DHT22;3179;54.350;10.102;2024-03-25T04:30:14;7.80;99.90
6293;DHT22;3179;54.350;10.102;2024-03-25T04:32:42;7.80;99.90
6293;DHT22;3179;54.350;10.102;2024-03-25T04:35:08;7.80;99.90
6293;DHT22;3179;54.350;10.102;2024-03-25T04:37:35;7.80;99.90
6293;DHT22;3179;54.350;10.102;2024-03-25T04:40:02;7.80;99.90
6293;DHT22;3179;54.350;10.102;2024-03-25T04:42:28;7.80;99.90
6293;DHT22;3179;54.350;10.102;2024-03-25T04:44:55;7.80;99.90
6293;DHT22;3179;54.350;10.102;2024-03-25T04:47:21;7.80;99.90
6293;DHT22;3179;54.350;10.102;2024-03-25T04:49:47;7.70;99.90
6293;DHT22;3179;54.350;10.102;2024-03-25T04:52:13;7.70;99.90
6293;DHT22;3179;54.350;10.102;2024-03-25T04:54:40;7.80;99.90
6293;DHT22;3179;54.350;10.102;2024-03-25T04:57:06;7.80;99.90
6293;DHT22;3179;54.350;10.102;2024-03-25T04:59:32;7.70;99.90
6293;DHT22;3179;54.350;10.102;2024-03-25T05:02:00;7.70;99.90
6293;DHT22;3179;54.350;10.102;2024-03-25T05:04:26;7.70;99.90
6293;DHT22;3179;54.350;10.102;2024-03-25T05:06:52;7.70;99.90
6293;DHT22;3179;54.350;10.102;2024-03-25T05:09:18;7.60;99.90
6293;DHT22;3179;54.350;10.102;2024-03-25T05:11:44;7.60;99.90
6293;DHT22;3179;54.350;10.102;2024-03-25T05:14:10;7.50;99.90
6293;DHT22;3179;54.350;10.102;2024-03-25T05:16:36;7.50;99.90
6293;DHT22;3179;54.350;10.102;2024-03-25T05:19:03;7.50;99.90
6293;DHT22;3179;54.350;10.102;2024-03-25T05:21:30;7.50;99.90
6293;DHT22;3179;54.350;10.102;2024-03-25T05:23:55;7.40;99.90
6293;DHT22;3179;54.350;10.102;2024-03-25T05:26:22;7.40;99.90
6293;DHT22;3179;54.350;10.102;2024-03-25T05:28:52;7.40;99.90
6293;DHT22;3179;54.350;10.102;2024-03-25T05:31:18;7.40;99.90
6293;DHT22;3179;54.350;10.102;2024-03-25T05:33:44;7.40;99.90
6293;DHT22;3179;54.350;10.102;2024-03-25T05:36:11;7.50;99.90
6293;DHT22;3179;54.350;10.102;2024-03-25T05:38:37;7.50;99.90
6293;DHT22;3179;54.350;10.102;2024-03-25T05:41:04;7.40;99.90
6293;DHT22;3179;54.350;10.102;2024-03-25T05:43:30;7.50;99.90
6293;DHT22;3179;54.350;10.102;2024-03-25T05:45:56;7.50;99.90
6293;DHT22;3179;54.350;10.102;2024-03-25T05:48:24;7.60;99.90
6293;DHT22;3179;54.350;10.102;2024-03-25T05:50:58;7.60;99.90
6293;DHT22;3179;54.350;10.102;2024-03-25T05:53:25;7.60;99.90
6293;DHT22;3179;54.350;10.102;2024-03-25T05:55:51;7.70;99.90
6293;DHT22;3179;54.350;10.102;2024-03-25T05:58:17;7.60;99.90
6293;DHT22;3179;54.350;10.102;2024-03-25T06:00:43;7.70;99.90
6293;DHT22;3179;54.350;10.102;2024-03-25T06:03:11;7.70;99.90
6293;DHT22;3179;54.350;10.102;2024-03-25T06:05:37;7.70;99.90
6293;DHT22;3179;54.350;10.102;2024-03-25T06:08:04;7.70;99.90
6293;DHT22;3179;54.350;10.102;2024-03-25T06:10:35;7.70;99.90
6293;DHT22;3179;54.350;10.102;2024-03-25T06:13:01;7.70;99.90
6293;DHT22;3179;54.350;10.102;2024-03-25T06:15:27;7.70;99.90
6293;DHT22;3179;54.350;10.102;2024-03-25T06:17:53;7.80;99.90
6293;DHT22;3179;54.350;10.102;2024-03-25T06:20:19;7.80;99.90
6293;DHT22;3179;54.350;10.102;2024-03-25T06:22:45;7.80;99.90
6293;DHT22;3179;54.350;10.102;2024-03-25T06:25:11;7.90;99.90
6293;DHT22;3179;54.350;10.102;2024-03-25T06:27:38;7.90;99.90
6293;DHT22;3179;54.350;10.102;2024-03-25T06:30:05;7.90;99.90
6293;DHT22;3179;54.350;10.102;2024-03-25T06:32:46;7.90;99.90
6293;DHT22;3179;54.350;10.102;2024-03-25T06:35:30;8.00;99.90
6293;DHT22;3179;54.350;10.102;2024-03-25T06:37:56;8.00;99.90
6293;DHT22;3179;54.350;10.102;2024-03-25T06:40:22;8.10;99.90
6293;DHT22;3179;54.350;10.102;2024-03-25T06:42:49;8.10;99.90
6293;DHT22;3179;54.350;10.102;2024-03-25T06:45:15;8.00;99.90
6293;DHT22;3179;54.350;10.102;2024-03-25T06:47:41;8.00;99.90
6293;DHT22;3179;54.350;10.102;2024-03-25T06:50:07;8.10;99.90
6293;DHT22;3179;54.350;10.102;2024-03-25T06:52:33;8.10;99.90
6293;DHT22;3179;54.350;10.102;2024-03-25T06:54:59;8.20;99.90
6293;DHT22;3179;54.350;10.102;2024-03-25T06:57:25;8.20;99.90
6293;DHT22;3179;54.350;10.102;2024-03-25T06:59:52;8.20;99.90
6293;DHT22;3179;54.350;10.102;2024-03-25T07:02:18;8.30;99.90
6293;DHT22;3179;54.350;10.102;2024-03-25T07:04:44;8.30;99.90
6293;DHT22;3179;54.350;10.102;2024-03-25T07:07:10;8.30;99.90
6293;DHT22;3179;54.350;10.102;2024-03-25T07:09:36;8.40;99.90
6293;DHT22;3179;54.350;10.102;2024-03-25T07:12:02;8.40;99.90
6293;DHT22;3179;54.350;10.102;2024-03-25T07:14:28;8.40;99.90
6293;DHT22;3179;54.350;10.102;2024-03-25T07:16:55;8.40;99.90
6293;DHT22;3179;54.350;10.102;2024-03-25T07:19:21;8.50;99.90
6293;DHT22;3179;54.350;10.102;2024-03-25T07:21:47;8.50;99.90
6293;DHT22;3179;54.350;10.102;2024-03-25T07:24:13;8.50;99.90
6293;DHT22;3179;54.350;10.102;2024-03-25T07:26:39;8.40;99.90
6293;DHT22;3179;54.350;10.102;2024-03-25T07:29:04;8.40;99.90
6293;DHT22;3179;54.350;10.102;2024-03-25T07:31:30;8.30;99.90
6293;DHT22;3179;54.350;10.102;2024-03-25T07:33:58;8.40;99.90
6293;DHT22;3179;54.350;10.102;2024-03-25T07:36:23;8.40;99.90
6293;DHT22;3179;54.350;10.102;2024-03-25T07:38:49;8.40;99.90
6293;DHT22;3179;54.350;10.102;2024-03-25T07:41:15;8.40;99.90
6293;DHT22;3179;54.350;10.102;2024-03-25T07:43:41;8.50;99.90
6293;DHT22;3179;54.350;10.102;2024-03-25T07:46:07;8.50;99.90
6293;DHT22;3179;54.350;10.102;2024-03-25T07:48:33;8.50;99.90
6293;DHT22;3179;54.350;10.102;2024-03-25T07:51:00;8.60;99.90
6293;DHT22;3179;54.350;10.102;2024-03-25T07:53:26;8.70;99.90
6293;DHT22;3179;54.350;10.102;2024-03-25T07:55:52;8.80;99.90
6293;DHT22;3179;54.350;10.102;2024-03-25T07:58:18;8.80;99.90
6293;DHT22;3179;54.350;10.102;2024-03-25T08:00:44;8.90;99.90
6293;DHT22;3179;54.350;10.102;2024-03-25T08:03:10;9.00;99.90
6293;DHT22;3179;54.350;10.102;2024-03-25T08:05:36;9.00;99.90
6293;DHT22;3179;54.350;10.102;2024-03-25T08:08:04;9.00;99.90
6293;DHT22;3179;54.350;10.102;2024-03-25T08:10:30;9.00;99.90
6293;DHT22;3179;54.350;10.102;2024-03-25T08:12:56;9.00;99.90
6293;DHT22;3179;54.350;10.102;2024-03-25T08:15:22;9.00;99.90
6293;DHT22;3179;54.350;10.102;2024-03-25T08:17:48;9.00;99.90
6293;DHT22;3179;54.350;10.102;2024-03-25T08:20:13;9.00;99.90
6293;DHT22;3179;54.350;10.102;2024-03-25T08:22:39;9.10;99.90
6293;DHT22;3179;54.350;10.102;2024-03-25T08:25:07;9.10;99.90
6293;DHT22;3179;54.350;10.102;2024-03-25T08:27:33;9.10;99.90
6293;DHT22;3179;54.350;10.102;2024-03-25T08:29:59;9.10;99.90
6293;DHT22;3179;54.350;10.102;2024-03-25T08:32:25;9.10;99.90
6293;DHT22;3179;54.350;10.102;2024-03-25T08:34:51;9.10;99.90
6293;DHT22;3179;54.350;10.102;2024-03-25T08:37:17;9.10;99.90
6293;DHT22;3179;54.350;10.102;2024-03-25T08:39:43;8.90;99.90
6293;DHT22;3179;54.350;10.102;2024-03-25T08:42:10;9.00;99.90
6293;DHT22;3179;54.350;10.102;2024-03-25T08:44:36;9.10;99.90
6293;DHT22;3179;54.350;10.102;2024-03-25T08:47:02;9.20;99.90
6293;DHT22;3179;54.350;10.102;2024-03-25T08:49:28;9.20;99.90
6293;DHT22;3179;54.350;10.102;2024-03-25T08:51:54;9.10;99.90
6293;DHT22;3179;54.350;10.102;2024-03-25T08:54:20;9.10;99.90
6293;DHT22;3179;54.350;10.102;2024-03-25T08:56:45;9.10;99.90
6293;DHT22;3179;54.350;10.102;2024-03-25T08:59:13;9.10;99.90
6293;DHT22;3179;54.350;10.102;2024-03-25T09:01:39;9.10;99.90
6293;DHT22;3179;54.350;10.102;2024-03-25T09:04:05;9.10;99.90
6293;DHT22;3179;54.350;10.102;2024-03-25T09:06:30;9.20;99.90
6293;DHT22;3179;54.350;10.102;2024-03-25T09:08:56;9.20;99.90
6293;DHT22;3179;54.350;10.102;2024-03-25T09:11:41;9.30;99.90
6293;DHT22;3179;54.350;10.102;2024-03-25T09:14:06;9.30;99.90
6293;DHT22;3179;54.350;10.102;2024-03-25T09:16:34;9.40;99.90
6293;DHT22;3179;54.350;10.102;2024-03-25T09:19:00;9.40;99.90
6293;DHT22;3179;54.350;10.102;2024-03-25T09:21:26;9.40;99.90
6293;DHT22;3179;54.350;10.102;2024-03-25T09:23:51;9.50;99.90
6293;DHT22;3179;54.350;10.102;2024-03-25T09:26:17;9.60;99.90
6293;DHT22;3179;54.350;10.102;2024-03-25T09:28:43;9.60;99.90
6293;DHT22;3179;54.350;10.102;2024-03-25T09:31:09;9.70;99.90
6293;DHT22;3179;54.350;10.102;2024-03-25T09:33:36;9.70;99.90
6293;DHT22;3179;54.350;10.102;2024-03-25T09:36:03;9.80;99.90
6293;DHT22;3179;54.350;10.102;2024-03-25T09:38:29;9.80;99.90
6293;DHT22;3179;54.350;10.102;2024-03-25T09:40:55;9.80;99.90
6293;DHT22;3179;54.350;10.102;2024-03-25T09:43:28;9.70;99.90
6293;DHT22;3179;54.350;10.102;2024-03-25T09:45:57;9.60;99.90
6293;DHT22;3179;54.350;10.102;2024-03-25T09:48:23;9.60;99.90
6293;DHT22;3179;54.350;10.102;2024-03-25T09:50:52;9.60;99.90
6293;DHT22;3179;54.350;10.102;2024-03-25T09:53:19;9.70;99.90
6293;DHT22;3179;54.350;10.102;2024-03-25T09:55:46;9.80;99.90
6293;DHT22;3179;54.350;10.102;2024-03-25T09:58:13;9.80;99.90
6293;DHT22;3179;54.350;10.102;2024-03-25T10:00:40;9.80;99.90
6293;DHT22;3179;54.350;10.102;2024-03-25T10:03:06;9.90;99.90
6293;DHT22;3179;54.350;10.102;2024-03-25T10:05:32;10.00;99.90
6293;DHT22;3179;54.350;10.102;2024-03-25T10:08:00;10.10;99.90
6293;DHT22;3179;54.350;10.102;2024-03-25T10:10:26;10.20;99.90
6293;DHT22;3179;54.350;10.102;2024-03-25T10:12:55;10.20;99.90
6293;DHT22;3179;54.350;10.102;2024-03-25T10:15:20;10.20;99.90
6293;DHT22;3179;54.350;10.102;2024-03-25T10:17:49;10.20;99.90
6293;DHT22;3179;54.350;10.102;2024-03-25T10:20:15;10.10;99.90
6293;DHT22;3179;54.350;10.102;2024-03-25T10:22:41;10.10;99.90
6293;DHT22;3179;54.350;10.102;2024-03-25T10:25:19;9.90;99.90
6293;DHT22;3179;54.350;10.102;2024-03-25T10:27:53;10.00;99.90
6293;DHT22;3179;54.350;10.102;2024-03-25T10:30:19;10.00;99.90
6293;DHT22;3179;54.350;10.102;2024-03-25T10:32:46;10.00;99.90
6293;DHT22;3179;54.350;10.102;2024-03-25T10:35:12;10.00;99.90
6293;DHT22;3179;54.350;10.102;2024-03-25T10:37:39;10.10;99.90
6293;DHT22;3179;54.350;10.102;2024-03-25T10:40:09;10.20;99.90
6293;DHT22;3179;54.350;10.102;2024-03-25T10:42:39;10.40;99.90
6293;DHT22;3179;54.350;10.102;2024-03-25T10:45:09;10.60;99.90
6293;DHT22;3179;54.350;10.102;2024-03-25T10:47:35;10.70;99.90
6293;DHT22;3179;54.350;10.102;2024-03-25T10:50:07;10.60;99.90
6293;DHT22;3179;54.350;10.102;2024-03-25T10:52:34;10.60;99.90
6293;DHT22;3179;54.350;10.102;2024-03-25T10:55:02;10.60;99.90
6293;DHT22;3179;54.350;10.102;2024-03-25T10:57:30;10.60;99.90
6293;DHT22;3179;54.350;10.102;2024-03-25T10:59:57;10.70;99.90
6293;DHT22;3179;54.350;10.102;2024-03-25T11:02:23;10.70;99.90
6293;DHT22;3179;54.350;10.102;2024-03-25T11:04:50;10.80;99.90
6293;DHT22;3179;54.350;10.102;2024-03-25T11:07:16;10.80;99.90
6293;DHT22;3179;54.350;10.102;2024-03-25T11:09:43;10.80;99.90
6293;DHT22;3179;54.350;10.102;2024-03-25T11:12:10;10.70;99.90
6293;DHT22;3179;54.350;10.102;2024-03-25T11:14:38;10.80;99.90
6293;DHT22;3179;54.350;10.102;2024-03-25T11:17:14;10.80;99.90
6293;DHT22;3179;54.350;10.102;2024-03-25T11:19:41;10.90;99.90
6293;DHT22;3179;54.350;10.102;2024-03-25T11:22:08;11.00;99.90
6293;DHT22;3179;54.350;10.102;2024-03-25T11:24:35;11.10;99.90
6293;DHT22;3179;54.350;10.102;2024-03-25T11:27:01;11.10;99.90
6293;DHT22;3179;54.350;10.102;2024-03-25T11:29:28;11.10;99.90
6293;DHT22;3179;54.350;10.102;2024-03-25T11:31:55;11.10;99.90
6293;DHT22;3179;54.350;10.102;2024-03-25T11:34:23;11.00;99.90
6293;DHT22;3179;54.350;10.102;2024-03-25T11:36:49;11.00;99.90
6293;DHT22;3179;54.350;10.102;2024-03-25T11:39:16;10.90;99.90
6293;DHT22;3179;54.350;10.102;2024-03-25T11:41:42;11.00;99.90
6293;DHT22;3179;54.350;10.102;2024-03-25T11:44:09;11.00;99.90
6293;DHT22;3179;54.350;10.102;2024-03-25T11:46:36;11.10;99.90
6293;DHT22;3179;54.350;10.102;2024-03-25T11:49:05;11.20;99.90
6293;DHT22;3179;54.350;10.102;2024-03-25T11:51:31;11.10;99.90
6293;DHT22;3179;54.350;10.102;2024-03-25T11:53:57;11.20;99.90
6293;DHT22;3179;54.350;10.102;2024-03-25T11:56:24;11.20;99.90
6293;DHT22;3179;54.350;10.102;2024-03-25T11:58:50;11.30;99.90
6293;DHT22;3179;54.350;10.102;2024-03-25T12:01:16;11.50;99.90
6293;DHT22;3179;54.350;10.102;2024-03-25T12:03:42;11.50;99.90
6293;DHT22;3179;54.350;10.102;2024-03-25T12:06:09;11.50;99.90
6293;DHT22;3179;54.350;10.102;2024-03-25T12:08:35;11.60;99.90
6293;DHT22;3179;54.350;10.102;2024-03-25T12:11:02;11.60;99.90
6293;DHT22;3179;54.350;10.102;2024-03-25T12:13:43;11.60;99.90
6293;DHT22;3179;54.350;10.102;2024-03-25T12:16:09;11.60;99.90
6293;DHT22;3179;54.350;10.102;2024-03-25T12:18:36;11.60;99.90
6293;DHT22;3179;54.350;10.102;2024-03-25T12:21:04;11.60;99.90
6293;DHT22;3179;54.350;10.102;2024-03-25T12:23:32;11.70;99.90
6293;DHT22;3179;54.350;10.102;2024-03-25T12:25:59;11.80;99.90
6293;DHT22;3179;54.350;10.102;2024-03-25T12:28:25;12.00;99.90
6293;DHT22;3179;54.350;10.102;2024-03-25T12:30:52;12.20;99.90
6293;DHT22;3179;54.350;10.102;2024-03-25T12:33:18;12.30;99.90
6293;DHT22;3179;54.350;10.102;2024-03-25T12:35:45;12.50;99.90
6293;DHT22;3179;54.350;10.102;2024-03-25T12:38:24;12.70;99.90
6293;DHT22;3179;54.350;10.102;2024-03-25T12:40:52;12.80;99.90
6293;DHT22;3179;54.350;10.102;2024-03-25T12:43:18;12.70;99.90
6293;DHT22;3179;54.350;10.102;2024-03-25T12:45:44;12.70;99.90
6293;DHT22;3179;54.350;10.102;2024-03-25T12:48:10;12.60;99.90
6293;DHT22;3179;54.350;10.102;2024-03-25T12:50:36;12.40;99.90
6293;DHT22;3179;54.350;10.102;2024-03-25T12:53:04;12.20;99.90
6293;DHT22;3179;54.350;10.102;2024-03-25T12:55:30;12.10;99.90
6293;DHT22;3179;54.350;10.102;2024-03-25T12:57:57;12.00;99.90
6293;DHT22;3179;54.350;10.102;2024-03-25T13:00:23;12.00;99.90
6293;DHT22;3179;54.350;10.102;2024-03-25T13:02:49;11.90;99.90
6293;DHT22;3179;54.350;10.102;2024-03-25T13:05:15;12.00;99.90
6293;DHT22;3179;54.350;10.102;2024-03-25T13:07:41;12.00;99.90
6293;DHT22;3179;54.350;10.102;2024-03-25T13:10:07;12.10;99.90
6293;DHT22;3179;54.350;10.102;2024-03-25T13:12:33;12.10;99.90
6293;DHT22;3179;54.350;10.102;2024-03-25T13:15:00;12.30;99.90
6293;DHT22;3179;54.350;10.102;2024-03-25T13:17:26;12.50;99.90
6293;DHT22;3179;54.350;10.102;2024-03-25T13:19:52;12.70;99.90
6293;DHT22;3179;54.350;10.102;2024-03-25T13:22:18;12.80;99.90
6293;DHT22;3179;54.350;10.102;2024-03-25T13:24:44;13.00;99.90
6293;DHT22;3179;54.350;10.102;2024-03-25T13:27:10;13.10;99.90
6293;DHT22;3179;54.350;10.102;2024-03-25T13:29:36;13.30;99.90
6293;DHT22;3179;54.350;10.102;2024-03-25T13:32:03;13.40;99.90
6293;DHT22;3179;54.350;10.102;2024-03-25T13:34:29;13.60;99.90
6293;DHT22;3179;54.350;10.102;2024-03-25T13:36:55;13.70;99.90
6293;DHT22;3179;54.350;10.102;2024-03-25T13:39:21;13.70;99.90
6293;DHT22;3179;54.350;10.102;2024-03-25T13:41:47;13.60;99.90
6293;DHT22;3179;54.350;10.102;2024-03-25T13:44:13;13.40;99.90
6293;DHT22;3179;54.350;10.102;2024-03-25T13:46:39;13.30;99.90
6293;DHT22;3179;54.350;10.102;2024-03-25T13:49:07;13.30;99.90
6293;DHT22;3179;54.350;10.102;2024-03-25T13:51:32;13.20;99.90
6293;DHT22;3179;54.350;10.102;2024-03-25T13:53:58;13.00;99.90
6293;DHT22;3179;54.350;10.102;2024-03-25T13:56:25;12.90;99.90
6293;DHT22;3179;54.350;10.102;2024-03-25T13:58:50;12.70;99.90
6293;DHT22;3179;54.350;10.102;2024-03-25T14:01:17;12.80;99.90
6293;DHT22;3179;54.350;10.102;2024-03-25T14:03:43;12.70;99.90
6293;DHT22;3179;54.350;10.102;2024-03-25T14:06:10;12.70;99.90
6293;DHT22;3179;54.350;10.102;2024-03-25T14:08:36;12.70;99.90
6293;DHT22;3179;54.350;10.102;2024-03-25T14:11:03;12.80;99.90
6293;DHT22;3179;54.350;10.102;2024-03-25T14:13:29;12.90;99.90
6293;DHT22;3179;54.350;10.102;2024-03-25T14:15:54;13.10;99.90
6293;DHT22;3179;54.350;10.102;2024-03-25T14:18:20;13.30;99.90
6293;DHT22;3179;54.350;10.102;2024-03-25T14:20:46;13.50;99.90
6293;DHT22;3179;54.350;10.102;2024-03-25T14:23:14;13.40;99.90
6293;DHT22;3179;54.350;10.102;2024-03-25T14:25:40;13.40;99.90
6293;DHT22;3179;54.350;10.102;2024-03-25T14:28:06;13.50;99.90
6293;DHT22;3179;54.350;10.102;2024-03-25T14:30:32;13.70;99.90
6293;DHT22;3179;54.350;10.102;2024-03-25T14:32:58;14.00;99.90
6293;DHT22;3179;54.350;10.102;2024-03-25T14:35:24;14.20;99.90
6293;DHT22;3179;54.350;10.102;2024-03-25T14:37:50;14.40;99.90
6293;DHT22;3179;54.350;10.102;2024-03-25T14:40:17;14.60;99.90
6293;DHT22;3179;54.350;10.102;2024-03-25T14:42:43;14.70;99.90
6293;DHT22;3179;54.350;10.102;2024-03-25T14:45:09;14.80;99.90
6293;DHT22;3179;54.350;10.102;2024-03-25T14:47:35;14.80;99.90
6293;DHT22;3179;54.350;10.102;2024-03-25T14:50:01;14.80;99.90
6293;DHT22;3179;54.350;10.102;2024-03-25T14:52:27;14.90;99.90
6293;DHT22;3179;54.350;10.102;2024-03-25T14:54:53;15.00;99.90
6293;DHT22;3179;54.350;10.102;2024-03-25T14:57:20;15.00;99.90
6293;DHT22;3179;54.350;10.102;2024-03-25T14:59:46;15.00;99.90
6293;DHT22;3179;54.350;10.102;2024-03-25T15:02:12;15.10;99.90
6293;DHT22;3179;54.350;10.102;2024-03-25T15:04:38;15.10;99.90
6293;DHT22;3179;54.350;10.102;2024-03-25T15:07:04;15.00;99.90
6293;DHT22;3179;54.350;10.102;2024-03-25T15:09:32;14.70;99.90
6293;DHT22;3179;54.350;10.102;2024-03-25T15:11:58;14.30;99.90
6293;DHT22;3179;54.350;10.102;2024-03-25T15:14:28;14.00;99.90
6293;DHT22;3179;54.350;10.102;2024-03-25T15:16:54;13.70;99.90
6293;DHT22;3179;54.350;10.102;2024-03-25T15:19:20;13.70;99.90
6293;DHT22;3179;54.350;10.102;2024-03-25T15:21:46;13.70;99.90
6293;DHT22;3179;54.350;10.102;2024-03-25T15:24:12;13.60;99.90
6293;DHT22;3179;54.350;10.102;2024-03-25T15:26:38;13.50;99.90
6293;DHT22;3179;54.350;10.102;2024-03-25T15:29:04;13.50;99.90
6293;DHT22;3179;54.350;10.102;2024-03-25T15:31:31;13.50;99.90
6293;DHT22;3179;54.350;10.102;2024-03-25T15:33:57;13.50;99.90
6293;DHT22;3179;54.350;10.102;2024-03-25T15:36:23;13.40;99.90
6293;DHT22;3179;54.350;10.102;2024-03-25T15:38:49;13.30;99.90
6293;DHT22;3179;54.350;10.102;2024-03-25T15:41:15;13.10;99.90
6293;DHT22;3179;54.350;10.102;2024-03-25T15:43:41;12.90;99.90
6293;DHT22;3179;54.350;10.102;2024-03-25T15:46:07;12.80;99.90
6293;DHT22;3179;54.350;10.102;2024-03-25T15:48:34;12.70;99.90
6293;DHT22;3179;54.350;10.102;2024-03-25T15:51:00;12.70;99.90